Time;durP1;ratioP1;P1;durP2;ratioP2;P2;SDS_P1;SDS_P2;PMS_P1;PMS_P2;Temp;Humidity;BMP_temperature;BMP_pressure;BME280_temperature;BME280_humidity;BME280_pressure;Samples;Min_cycle;Max_cycle;Signal;HPM_P1;HPM_P2
2023/10/10 00:02:04;;;;;;;13.73;7.83;;;;;;;15.57;100.00;98620.53;5130994;27;20248;-72
2023/10/10 00:04:33;;;;;;;13.53;7.63;;;;;;;15.55;100.00;98619.09;5131251;27;20267;-72
2023/10/10 00:07:05;;;;;;;14.07;7.97;;;;;;;15.52;100.00;98623.06;5130797;28;20563;-72
2023/10/10 00:09:31;;;;;;;16.83;7.23;;;;;;;15.48;100.00;98623.78;5130807;28;20197;-72
2023/10/10 00:11:58;;;;;;;14.13;7.37;;;;;;;15.43;100.00;98623.69;5130663;28;20215;-72
2023/10/10 00:14:28;;;;;;;15.90;7.33;;;;;;;15.45;100.00;98619.72;5130974;28;20210;-72
2023/10/10 00:16:55;;;;;;;16.17;7.33;;;;;;;15.37;100.00;98614.72;5130558;27;20226;-72
2023/10/10 00:19:29;;;;;;;17.67;7.50;;;;;;;15.32;100.00;98619.13;5131277;28;20299;-72
2023/10/10 00:21:56;;;;;;;17.03;7.73;;;;;;;15.24;100.00;98612.25;5131000;27;20187;-73
2023/10/10 00:24:30;;;;;;;16.80;7.20;;;;;;;15.19;100.00;98622.06;5130794;27;20199;-72
2023/10/10 00:27:06;;;;;;;14.87;6.80;;;;;;;15.11;100.00;98625.91;5130782;27;20194;-72
2023/10/10 00:29:33;;;;;;;16.57;7.07;;;;;;;15.15;100.00;98618.22;5116754;27;20187;-72
2023/10/10 00:32:04;;;;;;;21.57;7.43;;;;;;;15.12;100.00;98613.31;5116512;28;20670;-72
2023/10/10 00:34:33;;;;;;;15.97;6.47;;;;;;;15.16;100.00;98603.78;5116451;27;20211;-72
2023/10/10 00:37:08;;;;;;;13.23;6.70;;;;;;;15.09;100.00;98603.91;5116798;28;20234;-72
2023/10/10 00:39:36;;;;;;;15.03;6.20;;;;;;;15.18;100.00;98605.19;5116915;28;20211;-72
2023/10/10 00:42:06;;;;;;;13.53;6.33;;;;;;;15.07;100.00;98603.31;5116444;28;20203;-72
2023/10/10 00:44:37;;;;;;;13.33;7.23;;;;;;;15.00;100.00;98599.94;5116716;28;20237;-72
2023/10/10 00:47:03;;;;;;;17.93;6.33;;;;;;;15.00;100.00;98599.13;5116448;28;20662;-72
2023/10/10 00:49:34;;;;;;;11.50;5.87;;;;;;;15.03;100.00;98602.16;5116565;28;20230;-72
2023/10/10 00:52:06;;;;;;;10.27;5.73;;;;;;;15.02;100.00;98591.69;5116689;28;20257;-72
2023/10/10 00:54:40;;;;;;;15.27;6.10;;;;;;;15.02;100.00;98589.00;5116325;28;20233;-72
2023/10/10 00:57:08;;;;;;;16.83;6.70;;;;;;;15.08;100.00;98588.06;5116416;28;20213;-72
2023/10/10 00:59:42;;;;;;;15.03;6.80;;;;;;;15.02;100.00;98592.47;5116431;28;20257;-72
2023/10/10 01:02:10;;;;;;;16.27;6.07;;;;;;;14.97;100.00;98591.56;5116443;28;20187;-72
2023/10/10 01:04:38;;;;;;;11.67;6.03;;;;;;;14.94;100.00;98592.84;5116325;28;20569;-72
2023/10/10 01:07:07;;;;;;;15.17;6.13;;;;;;;14.93;100.00;98604.59;5116287;28;20207;-72
2023/10/10 01:09:35;;;;;;;16.53;6.40;;;;;;;14.91;100.00;98601.34;5116279;28;20203;-72
2023/10/10 01:12:04;;;;;;;14.47;5.57;;;;;;;14.93;100.00;98609.94;5116181;28;20211;-72
2023/10/10 01:14:31;;;;;;;15.73;6.43;;;;;;;14.83;100.00;98600.91;5116192;28;20207;-72
2023/10/10 01:16:59;;;;;;;16.63;5.73;;;;;;;14.79;100.00;98592.50;5115645;28;20709;-72
2023/10/10 01:19:28;;;;;;;17.87;6.67;;;;;;;14.81;100.00;98598.44;5115644;28;20827;-72
2023/10/10 01:21:58;;;;;;;14.30;6.07;;;;;;;14.72;100.00;98596.31;5115669;28;20669;-72
2023/10/10 01:24:26;;;;;;;17.10;6.50;;;;;;;14.72;100.00;98591.81;5116048;28;20187;-72
2023/10/10 01:27:03;;;;;;;15.00;5.80;;;;;;;14.63;100.00;98595.88;5115907;28;20203;-72
2023/10/10 01:29:40;;;;;;;15.03;6.10;;;;;;;14.68;100.00;98593.31;5115555;28;20766;-72
2023/10/10 01:32:10;;;;;;;14.17;5.63;;;;;;;14.66;100.00;98589.25;5115896;28;20587;-72
2023/10/10 01:34:43;;;;;;;11.67;5.70;;;;;;;14.70;100.00;98582.38;5115503;28;20611;-72
2023/10/10 01:37:14;;;;;;;11.90;5.33;;;;;;;14.65;100.00;98577.72;5115266;28;20671;-72
2023/10/10 01:40:12;;;;;;;12.97;5.40;;;;;;;14.68;100.00;98582.59;5114733;28;20188;-72
2023/10/10 01:42:44;;;;;;;16.93;5.80;;;;;;;14.64;100.00;98577.94;5115691;28;20288;-72
2023/10/10 01:45:17;;;;;;;15.70;5.83;;;;;;;14.58;100.00;98578.88;5115614;28;20199;-72
2023/10/10 01:47:56;;;;;;;16.87;5.47;;;;;;;14.65;100.00;98579.59;5115437;28;20219;-73
2023/10/10 01:50:26;;;;;;;20.20;5.70;;;;;;;14.62;100.00;98575.50;5115464;28;20213;-73
2023/10/10 01:52:55;;;;;;;15.43;5.93;;;;;;;14.57;100.00;98575.38;5116283;28;20207;-73
2023/10/10 01:55:24;;;;;;;13.67;5.73;;;;;;;14.53;100.00;98571.56;5115726;28;20284;-73
2023/10/10 01:57:55;;;;;;;16.60;5.90;;;;;;;14.54;100.00;98573.16;5115253;28;20223;-73
2023/10/10 02:00:26;;;;;;;14.97;5.80;;;;;;;14.47;100.00;98575.13;5114878;28;20211;-73
2023/10/10 02:02:54;;;;;;;12.33;5.00;;;;;;;14.40;100.00;98578.97;5115246;28;20218;-73
2023/10/10 02:05:32;;;;;;;23.20;6.20;;;;;;;14.41;100.00;98572.56;5114929;28;20202;-73
2023/10/10 02:07:59;;;;;;;12.53;5.60;;;;;;;14.40;100.00;98576.28;5114752;28;20566;-73
2023/10/10 02:10:29;;;;;;;15.97;5.50;;;;;;;14.35;100.00;98581.50;5115104;28;20207;-73
2023/10/10 02:12:59;;;;;;;14.03;5.63;;;;;;;14.35;100.00;98574.31;5114779;28;20187;-73
2023/10/10 02:15:32;;;;;;;16.00;5.63;;;;;;;14.40;100.00;98574.44;5114601;28;20604;-73
2023/10/10 02:18:04;;;;;;;11.83;5.27;;;;;;;14.46;100.00;98572.69;5114360;28;20233;-72
2023/10/10 02:20:49;;;;;;;14.40;5.97;;;;;;;14.37;100.00;98571.38;5114854;28;20278;-72
2023/10/10 02:23:32;;;;;;;18.00;6.30;;;;;;;14.40;100.00;98571.75;5114844;28;20192;-72
2023/10/10 02:26:13;;;;;;;16.50;6.07;;;;;;;14.30;100.00;98581.41;5114850;28;20191;-72
2023/10/10 02:28:49;;;;;;;16.47;6.10;;;;;;;14.31;100.00;98575.81;5114673;28;20219;-72
2023/10/10 02:31:18;;;;;;;14.50;6.53;;;;;;;14.26;100.00;98575.69;5114694;28;20601;-72
2023/10/10 02:33:55;;;;;;;16.50;6.63;;;;;;;14.25;100.00;98568.69;5114656;28;20302;-72
2023/10/10 02:36:30;;;;;;;16.50;6.20;;;;;;;14.13;100.00;98575.88;5114329;28;20662;-71
2023/10/10 02:39:01;;;;;;;15.77;6.60;;;;;;;14.08;100.00;98578.41;5114445;28;20223;-71
2023/10/10 02:41:38;;;;;;;14.10;5.97;;;;;;;14.15;100.00;98580.97;5114415;28;20268;-71
2023/10/10 02:44:09;;;;;;;16.63;6.40;;;;;;;14.12;100.00;98582.25;5114328;28;20191;-71
2023/10/10 02:46:38;;;;;;;14.03;6.30;;;;;;;14.12;100.00;98579.59;5114312;28;20187;-71
2023/10/10 02:49:21;;;;;;;16.00;6.47;;;;;;;14.03;100.00;98574.78;5114155;28;20254;-71
2023/10/10 02:51:49;;;;;;;16.63;6.60;;;;;;;14.03;100.00;98580.13;5114098;28;20187;-71
2023/10/10 02:54:28;;;;;;;16.07;6.57;;;;;;;14.02;100.00;98575.81;5114300;28;20207;-71
2023/10/10 02:59:43;;;;;;;14.57;5.90;;;;;;;13.94;100.00;98571.63;5113539;28;20234;-71
2023/10/10 03:02:11;;;;;;;15.60;6.77;;;;;;;13.94;100.00;98582.31;5114160;28;20203;-71
2023/10/10 03:05:05;;;;;;;15.77;6.30;;;;;;;13.90;100.00;98572.28;5113716;28;20294;-71
2023/10/10 03:07:32;;;;;;;16.00;6.70;;;;;;;13.96;100.00;98577.53;5113585;28;20694;-71
2023/10/10 03:13:05;;;;;;;15.87;6.07;;;;;;;13.87;100.00;98576.25;5051159;28;20217;-71
2023/10/10 03:15:33;;;;;;;16.50;6.20;;;;;;;13.91;100.00;98574.75;5102329;28;20209;-71
2023/10/10 03:18:18;;;;;;;15.33;6.20;;;;;;;13.91;100.00;98573.91;5113460;28;20238;-71
2023/10/10 03:23:33;;;;;;;17.27;6.10;;;;;;;13.91;100.00;98573.91;5113454;28;20191;-71
2023/10/10 03:26:04;;;;;;;12.93;6.00;;;;;;;13.82;100.00;98572.59;5113884;28;20199;-71
2023/10/10 03:28:34;;;;;;;15.80;6.13;;;;;;;13.79;100.00;98573.06;5113536;28;20215;-71
2023/10/10 03:31:06;;;;;;;13.57;5.97;;;;;;;13.82;100.00;98577.94;5114266;28;20251;-71
2023/10/10 03:33:44;;;;;;;15.47;5.80;;;;;;;13.78;100.00;98580.28;5113709;28;20275;-71
2023/10/10 03:36:30;;;;;;;16.40;6.20;;;;;;;13.74;100.00;98573.75;5113581;28;20187;-71
2023/10/10 05:25:44;;;;;;;14.83;6.00;;;;;;;13.13;100.00;98573.06;5114951;28;20236;-72
2023/10/10 05:28:11;;;;;;;16.17;6.63;;;;;;;13.23;100.00;98576.03;5114843;28;20659;-72
2023/10/10 05:30:44;;;;;;;19.13;6.40;;;;;;;13.11;100.00;98571.66;5115308;28;20213;-72
2023/10/10 05:33:12;;;;;;;14.57;6.67;;;;;;;13.18;100.00;98570.56;5115770;28;20195;-72
2023/10/10 05:35:47;;;;;;;15.60;7.03;;;;;;;13.08;100.00;98567.59;5115073;28;20214;-72
2023/10/10 05:38:15;;;;;;;13.93;6.77;;;;;;;13.07;100.00;98565.94;5114808;28;20247;-72
2023/10/10 05:40:43;;;;;;;16.87;6.47;;;;;;;13.08;100.00;98575.59;5114553;28;20670;-72
2023/10/10 05:43:15;;;;;;;15.70;6.67;;;;;;;13.07;100.00;98584.63;5114998;28;20262;-72
2023/10/10 05:45:44;;;;;;;18.00;6.63;;;;;;;13.01;100.00;98577.50;5114996;28;20218;-72
2023/10/10 05:48:11;;;;;;;21.13;6.50;;;;;;;13.04;100.00;98584.25;5114738;27;20701;-71
2023/10/10 05:50:40;;;;;;;13.87;6.00;;;;;;;13.09;100.00;98579.91;5114654;28;20657;-71
2023/10/10 05:53:07;;;;;;;16.57;6.97;;;;;;;13.12;100.00;98582.09;5114874;28;20202;-71
2023/10/10 05:55:37;;;;;;;14.67;5.90;;;;;;;13.11;100.00;98588.47;5114875;28;20207;-71
2023/10/10 05:58:04;;;;;;;19.43;6.30;;;;;;;13.13;100.00;98591.75;5114362;28;20611;-71
2023/10/10 06:00:36;;;;;;;15.60;6.50;;;;;;;13.16;100.00;98587.84;5115040;28;20213;-72
2023/10/10 06:03:03;;;;;;;17.03;6.33;;;;;;;13.15;100.00;98595.00;5114668;28;20203;-72
2023/10/10 06:05:30;;;;;;;16.73;7.07;;;;;;;13.14;100.00;98598.72;5114410;28;20256;-72
2023/10/10 06:07:58;;;;;;;16.70;6.40;;;;;;;13.10;100.00;98600.22;5113683;28;20255;-72
2023/10/10 06:10:28;;;;;;;19.77;7.30;;;;;;;13.05;100.00;98599.22;5114447;28;20207;-72
2023/10/10 06:12:57;;;;;;;13.07;5.80;;;;;;;13.04;100.00;98603.78;5114132;28;20216;-72
2023/10/10 06:15:23;;;;;;;16.60;6.37;;;;;;;13.16;100.00;98609.19;5113949;28;20202;-72
2023/10/10 06:17:51;;;;;;;12.77;6.17;;;;;;;13.21;100.00;98599.47;5113915;28;20230;-72
2023/10/10 06:20:21;;;;;;;17.30;6.67;;;;;;;13.28;100.00;98599.38;5114050;28;20252;-72
2023/10/10 06:22:48;;;;;;;17.37;7.20;;;;;;;13.28;100.00;98610.06;5114213;28;20243;-72
2023/10/10 06:25:17;;;;;;;17.40;6.60;;;;;;;13.24;100.00;98607.03;5114209;28;20203;-72
2023/10/10 06:27:45;;;;;;;15.03;6.83;;;;;;;13.31;100.00;98605.13;5113736;28;20234;-72
2023/10/10 06:30:17;;;;;;;19.60;7.87;;;;;;;13.41;100.00;98602.75;5113544;28;20218;-72
2023/10/10 06:32:46;;;;;;;16.57;7.10;;;;;;;13.44;100.00;98607.63;5114158;28;20277;-72
2023/10/10 06:35:27;;;;;;;14.50;7.20;;;;;;;13.51;100.00;98607.53;5113883;28;20205;-72
2023/10/10 06:37:54;;;;;;;15.13;6.93;;;;;;;13.64;100.00;98612.72;5113533;28;20693;-72
2023/10/10 06:40:26;;;;;;;18.20;7.37;;;;;;;13.54;100.00;98613.28;5113883;28;20199;-72
2023/10/10 06:42:56;;;;;;;19.63;8.20;;;;;;;13.57;100.00;98607.47;5113991;28;20199;-72
2023/10/10 06:45:31;;;;;;;14.93;6.40;;;;;;;13.72;100.00;98610.56;5113610;28;20247;-72
2023/10/10 06:48:01;;;;;;;15.90;6.90;;;;;;;13.80;100.00;98612.13;5114393;28;20225;-72
2023/10/10 06:50:31;;;;;;;15.87;7.57;;;;;;;13.89;100.00;98614.22;5113479;28;20670;-72
2023/10/10 06:53:00;;;;;;;17.63;7.10;;;;;;;14.00;100.00;98607.31;5113804;28;20717;-72
2023/10/10 06:55:36;;;;;;;18.03;6.60;;;;;;;14.08;100.00;98612.34;5113331;28;20670;-72
2023/10/10 06:58:05;;;;;;;16.73;6.73;;;;;;;14.06;100.00;98603.75;5113586;28;20241;-72
2023/10/10 07:00:42;;;;;;;16.40;6.87;;;;;;;14.09;100.00;98609.44;5113730;28;20231;-72
2023/10/10 07:03:09;;;;;;;18.17;6.67;;;;;;;14.16;100.00;98609.34;5113079;28;20530;-72
2023/10/10 07:05:39;;;;;;;13.57;6.27;;;;;;;14.20;100.00;98613.19;5113330;28;20535;-72
2023/10/10 07:08:19;;;;;;;16.63;7.03;;;;;;;14.22;100.00;98605.78;5113113;28;20720;-72
2023/10/10 07:10:45;;;;;;;17.23;7.50;;;;;;;14.28;100.00;98608.38;5113355;28;20654;-72
2023/10/10 07:13:13;;;;;;;14.37;6.53;;;;;;;14.20;100.00;98608.69;5113000;28;20539;-72
2023/10/10 07:15:41;;;;;;;16.73;7.33;;;;;;;14.28;100.00;98605.69;5113518;28;20206;-72
2023/10/10 07:18:09;;;;;;;17.50;7.17;;;;;;;14.34;100.00;98602.09;5112987;28;20227;-72
2023/10/10 07:23:23;;;;;;;17.53;7.27;;;;;;;14.51;100.00;98605.72;5113522;28;20178;-72
2023/10/10 07:25:59;;;;;;;14.87;6.70;;;;;;;14.65;100.00;98615.16;5113523;28;20210;-72
2023/10/10 07:28:29;;;;;;;13.93;6.50;;;;;;;14.70;100.00;98614.50;5113442;28;20215;-72
2023/10/10 07:30:56;;;;;;;20.20;6.57;;;;;;;14.81;100.00;98616.34;5113645;28;20233;-72
2023/10/10 07:33:26;;;;;;;12.40;6.37;;;;;;;14.81;100.00;98616.34;5113693;28;20207;-72
2023/10/10 07:35:53;;;;;;;18.33;6.80;;;;;;;14.94;100.00;98618.81;5113816;28;20255;-72
2023/10/10 07:38:23;;;;;;;12.80;6.60;;;;;;;15.07;100.00;98613.22;5114626;28;20254;-72
2023/10/10 07:40:52;;;;;;;12.53;6.20;;;;;;;15.27;100.00;98621.69;5117344;28;20631;-72
2023/10/10 07:43:18;;;;;;;17.27;6.90;;;;;;;15.21;100.00;98626.16;5117385;27;20207;-72
2023/10/10 07:45:45;;;;;;;13.50;5.57;;;;;;;15.28;100.00;98616.09;5116960;28;20677;-72
2023/10/10 07:51:06;;;;;;;15.17;6.37;;;;;;;15.33;100.00;98621.56;5117108;28;20174;-72
2023/10/10 07:53:41;;;;;;;13.27;6.07;;;;;;;15.43;100.00;98629.06;5117185;28;20191;-72
2023/10/10 07:56:08;;;;;;;15.20;5.43;;;;;;;15.54;100.00;98628.19;5117235;28;20209;-72
2023/10/10 07:58:43;;;;;;;12.37;5.97;;;;;;;15.73;100.00;98635.84;5117062;28;20227;-72
2023/10/10 08:01:17;;;;;;;18.57;5.93;;;;;;;15.67;100.00;98638.66;5117246;28;20252;-72
2023/10/10 08:03:45;;;;;;;16.47;5.73;;;;;;;15.62;100.00;98634.03;5117119;28;20204;-72
2023/10/10 08:06:21;;;;;;;11.30;5.43;;;;;;;15.64;100.00;98634.59;5116798;28;20638;-72
2023/10/10 08:08:56;;;;;;;11.73;6.20;;;;;;;15.62;100.00;98639.38;5116775;28;20220;-72
2023/10/10 08:11:27;;;;;;;15.00;6.20;;;;;;;15.62;100.00;98642.06;5116369;28;20559;-72
2023/10/10 08:13:54;;;;;;;13.40;6.03;;;;;;;15.80;100.00;98643.75;5115958;27;20187;-72
2023/10/10 08:16:22;;;;;;;17.93;7.07;;;;;;;15.88;100.00;98640.72;5115988;28;20265;-72
2023/10/10 08:18:53;;;;;;;13.93;5.97;;;;;;;16.15;100.00;98645.25;5116486;28;20227;-72
2023/10/10 08:21:23;;;;;;;13.43;6.47;;;;;;;16.07;100.00;98651.03;5116572;28;20288;-72
2023/10/10 08:23:56;;;;;;;15.00;7.70;;;;;;;16.23;100.00;98647.56;5116471;27;20207;-72
2023/10/10 08:26:26;;;;;;;17.13;6.53;;;;;;;16.39;100.00;98646.78;5116067;28;20553;-72
2023/10/10 08:28:53;;;;;;;17.03;6.80;;;;;;;16.35;100.00;98656.38;5116094;28;20310;-72
2023/10/10 08:31:22;;;;;;;12.33;6.20;;;;;;;16.35;100.00;98655.53;5115900;28;20203;-72
2023/10/10 08:33:49;;;;;;;16.37;6.57;;;;;;;16.30;100.00;98653.59;5116039;28;20222;-72
2023/10/10 08:36:24;;;;;;;15.93;6.50;;;;;;;16.31;100.00;98652.53;5116293;28;20242;-72
2023/10/10 08:38:56;;;;;;;15.30;6.37;;;;;;;16.35;100.00;98651.00;5115522;28;20229;-72
2023/10/10 08:41:27;;;;;;;15.23;6.80;;;;;;;16.62;100.00;98649.38;5115907;28;20199;-72
2023/10/10 08:43:57;;;;;;;13.20;6.30;;;;;;;16.72;100.00;98646.84;5115876;28;20199;-73
2023/10/10 08:46:26;;;;;;;14.93;6.87;;;;;;;16.72;100.00;98643.34;5114901;28;20218;-73
2023/10/10 08:48:55;;;;;;;17.30;6.77;;;;;;;16.68;100.00;98648.38;5113549;28;20223;-73
2023/10/10 08:51:21;;;;;;;15.50;6.07;;;;;;;16.70;100.00;98646.25;5113816;27;20514;-73
2023/10/10 08:53:50;;;;;;;15.73;7.10;;;;;;;16.82;100.00;98641.63;5115440;28;20546;-73
2023/10/10 08:56:17;;;;;;;16.10;6.37;;;;;;;17.16;100.00;98632.50;5114594;28;20286;-73
2023/10/10 08:58:44;;;;;;;18.37;7.00;;;;;;;17.24;100.00;98632.06;5115577;28;20300;-73
2023/10/10 09:01:11;;;;;;;16.73;6.33;;;;;;;17.34;100.00;98631.41;5115759;28;20264;-72
2023/10/10 09:03:44;;;;;;;18.47;6.40;;;;;;;17.40;100.00;98633.94;5115947;28;20203;-72
2023/10/10 09:06:16;;;;;;;18.67;6.63;;;;;;;17.44;100.00;98629.69;5115898;28;20191;-72
2023/10/10 09:08:44;;;;;;;22.60;6.60;;;;;;;17.55;100.00;98636.81;5115724;28;20314;-72
2023/10/10 09:11:12;;;;;;;18.27;7.13;;;;;;;17.66;100.00;98630.53;5115482;28;20203;-72
2023/10/10 09:13:51;;;;;;;13.30;6.33;;;;;;;17.72;100.00;98631.38;5115538;28;20715;-72
2023/10/10 09:16:18;;;;;;;19.63;7.73;;;;;;;17.86;100.00;98629.94;5115438;28;20211;-72
2023/10/10 09:18:47;;;;;;;17.77;7.23;;;;;;;18.01;100.00;98628.25;5115036;28;20685;-72
2023/10/10 09:21:18;;;;;;;21.63;8.43;;;;;;;18.10;100.00;98624.03;5115663;28;20242;-72
2023/10/10 09:23:53;;;;;;;17.77;6.63;;;;;;;18.32;100.00;98630.19;5115364;28;20644;-72
2023/10/10 09:26:29;;;;;;;16.07;6.37;;;;;;;18.46;99.35;98633.34;5115669;28;20193;-72
2023/10/10 09:28:58;;;;;;;16.87;6.60;;;;;;;18.67;99.48;98632.41;5115270;27;20726;-72
2023/10/10 09:31:31;;;;;;;18.27;7.13;;;;;;;18.81;96.70;98639.00;5115459;28;20199;-72
2023/10/10 09:34:02;;;;;;;19.27;7.40;;;;;;;19.07;97.37;98632.75;5115473;28;20252;-73
2023/10/10 09:36:28;;;;;;;16.40;6.23;;;;;;;19.06;97.16;98634.66;5115722;28;20198;-73
2023/10/10 09:39:08;;;;;;;17.90;6.80;;;;;;;19.02;97.11;98627.31;5115116;28;20535;-73
2023/10/10 09:41:47;;;;;;;14.43;6.40;;;;;;;19.13;97.77;98627.13;5115064;28;20187;-73
2023/10/10 09:44:36;;;;;;;16.90;6.20;;;;;;;19.23;96.85;98626.44;5115509;28;20297;-73
2023/10/10 09:47:13;;;;;;;18.05;7.05;;;;;;;19.31;97.02;98632.13;5114669;28;20428;-74
2023/10/10 09:49:43;;;;;;;16.67;5.63;;;;;;;19.23;96.08;98629.91;5115384;28;20552;-74
2023/10/10 09:55:07;;;;;;;14.63;6.27;;;;;;;19.69;95.02;98639.06;5115147;28;20293;-74
2023/10/10 09:57:39;;;;;;;16.07;7.40;;;;;;;19.63;93.66;98630.13;5114730;28;20241;-73
2023/10/10 10:00:13;;;;;;;17.20;6.20;;;;;;;19.76;92.89;98639.63;5114335;28;20211;-73
2023/10/10 10:02:48;;;;;;;15.93;6.60;;;;;;;19.87;93.32;98637.78;5114431;28;20191;-74
2023/10/10 10:05:16;;;;;;;20.23;7.00;;;;;;;19.91;94.47;98647.81;5114095;27;20239;-74
2023/10/10 10:08:06;;;;;;;18.53;6.37;;;;;;;19.77;93.44;98639.38;5107725;28;20215;-74
2023/10/10 10:10:54;;;;;;;18.83;6.47;;;;;;;19.86;93.19;98646.97;5102452;28;20652;-74
2023/10/10 10:13:37;;;;;;;19.40;6.87;;;;;;;19.73;93.69;98637.47;5094948;28;20512;-75
2023/10/10 10:16:44;;;;;;;18.37;6.47;;;;;;;19.85;91.75;98640.75;5094264;28;20223;-75
2023/10/10 10:19:14;;;;;;;21.23;7.10;;;;;;;20.11;92.52;98647.09;5094208;28;20231;-75
2023/10/10 10:21:53;;;;;;;19.33;7.03;;;;;;;20.21;89.05;98644.44;5094414;28;20257;-75
2023/10/10 10:24:30;;;;;;;16.30;7.03;;;;;;;20.42;89.02;98637.97;5094480;28;20191;-75
2023/10/10 10:27:24;;;;;;;15.47;5.93;;;;;;;20.45;83.05;98642.84;5094033;28;20187;-75
2023/10/10 10:29:54;;;;;;;15.97;6.80;;;;;;;20.68;79.09;98640.47;5093651;28;20687;-75
2023/10/10 10:32:23;;;;;;;19.57;6.73;;;;;;;20.63;78.67;98645.88;5093948;28;20231;-75
2023/10/10 10:34:56;;;;;;;20.83;7.47;;;;;;;20.34;79.64;98643.94;5093602;28;20204;-75
2023/10/10 10:37:28;;;;;;;13.70;6.80;;;;;;;20.54;80.99;98638.53;5093929;28;20724;-75
2023/10/10 10:40:24;;;;;;;14.47;6.43;;;;;;;20.58;79.00;98637.72;5093450;28;20225;-75
2023/10/10 10:42:50;;;;;;;19.17;6.20;;;;;;;20.64;78.59;98638.53;5094031;28;20188;-75
2023/10/10 10:45:35;;;;;;;18.03;6.87;;;;;;;20.84;74.86;98633.16;5093720;28;20697;-75
2023/10/10 10:48:08;;;;;;;12.53;6.47;;;;;;;20.79;76.05;98638.56;5093332;28;20224;-75
2023/10/10 10:50:42;;;;;;;15.80;6.63;;;;;;;20.70;75.93;98634.78;5093717;28;20271;-75
2023/10/10 10:53:30;;;;;;;15.37;6.40;;;;;;;20.63;74.19;98631.53;5093675;28;20195;-75
2023/10/10 10:59:11;;;;;;;11.10;6.10;;;;;;;20.98;71.71;98626.16;5089344;28;20322;-75
2023/10/10 11:01:42;;;;;;;17.80;7.03;;;;;;;21.07;69.60;98624.53;5093374;28;20211;-75
2023/10/10 11:04:14;;;;;;;15.83;6.23;;;;;;;21.29;69.14;98627.75;5093660;28;20533;-75
2023/10/10 11:06:51;;;;;;;17.50;6.73;;;;;;;21.12;66.13;98625.31;5093548;28;20188;-75
2023/10/10 11:09:31;;;;;;;14.20;7.13;;;;;;;21.14;66.26;98619.63;5093513;28;20220;-75
2023/10/10 11:12:03;;;;;;;13.70;6.63;;;;;;;21.26;61.60;98620.16;5093316;28;20223;-75
2023/10/10 11:14:31;;;;;;;17.17;7.53;;;;;;;21.28;60.71;98618.00;5092752;28;20207;-75
2023/10/10 11:16:58;;;;;;;12.60;6.33;;;;;;;21.40;59.94;98600.41;5093212;28;20306;-75
2023/10/10 11:19:39;;;;;;;13.07;6.10;;;;;;;21.52;56.08;98603.59;5093015;28;20322;-75
2023/10/10 11:22:12;;;;;;;12.50;6.55;;;;;;;21.76;51.72;98603.81;5093225;28;20651;-75
2023/10/10 11:24:39;;;;;;;14.13;7.10;;;;;;;21.83;50.59;98594.28;5093727;28;20188;-75
2023/10/10 11:27:21;;;;;;;13.27;6.67;;;;;;;21.72;50.71;98591.91;5093447;28;20208;-75
2023/10/10 11:29:50;;;;;;;13.02;6.65;;;;;;;21.84;48.82;98587.00;5093438;28;20188;-75
2023/10/10 11:32:24;;;;;;;12.40;7.30;;;;;;;21.69;46.88;98577.03;5093089;28;20261;-75
2023/10/10 11:34:56;;;;;;;14.05;6.75;;;;;;;21.90;47.05;98575.03;5093448;28;20199;-75
2023/10/10 11:37:28;;;;;;;11.98;6.75;;;;;;;22.01;44.62;98573.88;5093282;28;20188;-75
2023/10/10 11:40:31;;;;;;;12.85;7.32;;;;;;;21.94;45.94;98568.81;5093298;28;20207;-74
2023/10/10 11:43:00;;;;;;;13.32;6.65;;;;;;;22.19;45.39;98560.53;5108276;28;20198;-74
2023/10/10 11:45:27;;;;;;;16.90;6.57;;;;;;;22.27;44.44;98559.09;5113677;28;20549;-74
2023/10/10 11:48:00;;;;;;;15.98;6.60;;;;;;;22.23;45.46;98555.34;5113823;28;20230;-74
2023/10/10 11:50:43;;;;;;;14.88;7.43;;;;;;;22.10;45.81;98550.53;5113948;28;20184;-74
2023/10/10 11:53:12;;;;;;;13.90;7.25;;;;;;;21.91;46.18;98555.81;5114002;28;20190;-74
2023/10/10 11:55:41;;;;;;;12.50;6.07;;;;;;;21.95;44.93;98554.19;5114646;28;20294;-74
2023/10/10 11:58:08;;;;;;;14.18;6.90;;;;;;;21.99;45.28;98557.13;5113305;28;20243;-74
2023/10/10 12:00:42;;;;;;;11.63;6.53;;;;;;;22.22;44.70;98545.59;5113503;28;20223;-74
2023/10/10 12:03:12;;;;;;;14.25;6.63;;;;;;;22.23;45.80;98539.09;5113870;28;20199;-74
2023/10/10 12:05:48;;;;;;;13.05;6.22;;;;;;;22.28;46.24;98545.28;5113563;28;20214;-74
2023/10/10 12:08:20;;;;;;;11.20;6.05;;;;;;;22.14;45.85;98540.78;5113276;28;20222;-74
2023/10/10 12:10:52;;;;;;;15.45;7.20;;;;;;;22.36;44.92;98539.28;5113894;28;20210;-74
2023/10/10 12:13:33;;;;;;;15.75;6.65;;;;;;;22.24;44.11;98532.59;5115044;28;20281;-74
2023/10/10 12:16:00;;;;;;;15.27;6.72;;;;;;;22.34;43.97;98536.03;5113905;28;20199;-75
2023/10/10 12:18:30;;;;;;;13.38;6.57;;;;;;;22.39;43.78;98532.47;5113474;28;20227;-74
2023/10/10 12:21:01;;;;;;;12.77;7.25;;;;;;;22.25;43.14;98531.50;5113790;28;20223;-74
2023/10/10 12:23:28;;;;;;;10.68;6.30;;;;;;;22.40;42.84;98531.38;5113867;28;20236;-74
2023/10/10 12:25:55;;;;;;;14.48;6.90;;;;;;;22.32;44.63;98526.56;5117161;28;20678;-74
2023/10/10 12:28:22;;;;;;;11.27;6.75;;;;;;;22.39;43.98;98527.06;5116941;28;20310;-74
2023/10/10 12:30:48;;;;;;;12.32;6.57;;;;;;;22.56;42.78;98538.34;5117261;28;20250;-74
2023/10/10 12:33:16;;;;;;;18.88;7.03;;;;;;;22.67;43.46;98518.16;5117233;28;20203;-74
2023/10/10 12:35:47;;;;;;;12.52;6.43;;;;;;;22.50;43.96;98528.63;5117417;28;20302;-75
2023/10/10 12:38:20;;;;;;;14.15;6.63;;;;;;;22.52;45.73;98523.72;5117011;27;20589;-75
2023/10/10 12:40:51;;;;;;;14.85;6.55;;;;;;;22.50;46.61;98512.34;5111320;28;20215;-75
2023/10/10 12:43:18;;;;;;;12.23;5.82;;;;;;;22.40;47.13;98510.53;5105883;28;20222;-74
2023/10/10 12:45:45;;;;;;;13.07;6.70;;;;;;;22.60;44.91;98504.13;5105858;28;20696;-75
2023/10/10 12:48:20;;;;;;;13.60;6.00;;;;;;;22.41;47.52;98509.44;5106578;28;21039;-75
2023/10/10 12:51:00;;;;;;;15.45;5.63;;;;;;;22.41;46.38;98508.59;5101416;28;20191;-75
2023/10/10 12:53:30;;;;;;;16.83;6.78;;;;;;;22.58;46.73;98499.00;5096588;28;20195;-74
2023/10/10 12:56:01;;;;;;;13.85;6.43;;;;;;;22.54;46.98;98497.16;5097244;28;20203;-74
2023/10/10 12:58:30;;;;;;;12.07;5.82;;;;;;;22.77;46.95;98501.81;5095854;28;20220;-74
2023/10/10 13:00:58;;;;;;;16.42;6.30;;;;;;;22.67;47.72;98497.31;5096088;28;20239;-74
2023/10/10 13:03:30;;;;;;;13.30;6.70;;;;;;;22.83;47.37;98496.03;5096244;28;20211;-74
2023/10/10 13:06:00;;;;;;;14.95;6.07;;;;;;;22.97;47.52;98488.06;5096062;28;20225;-74
2023/10/10 13:08:38;;;;;;;19.30;6.32;;;;;;;22.93;46.78;98493.22;5095906;28;20224;-74
2023/10/10 13:11:12;;;;;;;15.25;6.53;;;;;;;22.91;45.98;98497.31;5096209;28;20187;-74
2023/10/10 13:13:46;;;;;;;13.07;6.28;;;;;;;22.99;45.50;98489.38;5095804;28;20277;-75
2023/10/10 13:16:27;;;;;;;15.65;6.60;;;;;;;22.81;46.83;98494.72;5095630;28;20296;-74
2023/10/10 13:18:57;;;;;;;12.30;6.13;;;;;;;22.71;47.12;98492.13;5096046;28;20234;-74
2023/10/10 13:21:25;;;;;;;14.00;6.22;;;;;;;22.70;46.33;98502.13;5095894;28;20196;-74
2023/10/10 13:23:52;;;;;;;16.60;6.65;;;;;;;22.88;45.77;98492.50;5101288;28;20563;-75
2023/10/10 13:26:21;;;;;;;12.85;5.80;;;;;;;22.75;46.05;98493.16;5096341;28;20586;-75
2023/10/10 13:28:47;;;;;;;13.10;6.53;;;;;;;22.66;48.12;98497.59;5095096;28;20224;-75
2023/10/10 13:31:15;;;;;;;14.98;6.82;;;;;;;22.62;47.52;98482.97;5095165;28;20203;-75
2023/10/10 13:33:42;;;;;;;13.48;7.15;;;;;;;22.61;48.90;98489.50;5094822;28;20208;-75
2023/10/10 13:36:11;;;;;;;15.45;7.10;;;;;;;22.94;45.39;98488.63;5094894;28;20210;-75
2023/10/10 13:38:47;;;;;;;14.05;6.80;;;;;;;22.81;46.94;98481.16;5094836;28;20223;-75
2023/10/10 13:41:27;;;;;;;14.90;6.72;;;;;;;22.77;48.30;98490.97;5094821;28;20298;-75
2023/10/10 13:43:59;;;;;;;14.15;6.80;;;;;;;22.70;48.59;98490.50;5094804;28;20249;-75
2023/10/10 13:46:27;;;;;;;14.27;6.57;;;;;;;22.72;45.50;98491.84;5094643;28;20184;-75
2023/10/10 13:48:54;;;;;;;13.45;7.15;;;;;;;22.71;46.19;98489.41;5094735;28;20249;-75